createdAt,value
2023-06-04T00:00:48.209Z,5.80
2023-06-04T00:01:48.217Z,5.10
2023-06-04T00:02:48.325Z,6.70
2023-06-04T00:03:48.258Z,5.50
2023-06-04T00:04:48.224Z,5.30
2023-06-04T00:05:48.119Z,5.50
2023-06-04T00:06:48.132Z,5.80
2023-06-04T00:07:48.159Z,5.80
2023-06-04T00:08:48.109Z,6.20
2023-06-04T00:09:48.215Z,6.00
2023-06-04T00:10:48.117Z,5.50
2023-06-04T00:11:48.137Z,6.60
2023-06-04T00:12:48.051Z,5.90
2023-06-04T00:13:48.037Z,5.70
2023-06-04T00:14:48.963Z,5.80
2023-06-04T00:15:48.204Z,5.90
2023-06-04T00:16:48.081Z,6.00
2023-06-04T00:17:48.059Z,6.10
2023-06-04T00:18:47.969Z,5.90
2023-06-04T00:19:47.962Z,5.60
2023-06-04T00:20:47.976Z,5.80
2023-06-04T00:21:47.974Z,6.60
2023-06-04T00:22:47.942Z,5.60
2023-06-04T00:23:47.917Z,6.20
2023-06-04T00:24:47.958Z,6.20
2023-06-04T00:25:47.880Z,6.40
2023-06-04T00:26:47.893Z,6.20
2023-06-04T00:27:48.040Z,6.10
2023-06-04T00:28:47.848Z,6.50
2023-06-04T00:29:47.827Z,6.10
2023-06-04T00:30:47.847Z,6.50
2023-06-04T00:31:47.819Z,6.30
2023-06-04T00:32:47.920Z,6.40
2023-06-04T00:33:47.787Z,9.00
2023-06-04T00:34:47.759Z,6.70
2023-06-04T00:35:47.746Z,10.40
2023-06-04T00:36:47.731Z,6.40
2023-06-04T00:37:47.723Z,6.40
2023-06-04T00:38:47.758Z,7.50
2023-06-04T00:39:47.719Z,6.50
2023-06-04T00:40:47.710Z,6.80
2023-06-04T00:41:47.641Z,6.10
2023-06-04T00:42:47.652Z,6.50
2023-06-04T00:43:47.643Z,6.90
2023-06-04T00:44:47.654Z,6.40
2023-06-04T00:45:47.694Z,6.60
2023-06-04T00:46:47.594Z,7.20
2023-06-04T00:47:47.646Z,6.50
2023-06-04T00:48:47.576Z,7.20
2023-06-04T00:49:47.568Z,6.80
2023-06-04T00:50:47.576Z,6.70
2023-06-04T00:51:47.633Z,6.80
2023-06-04T00:52:47.561Z,6.90
2023-06-04T00:53:47.530Z,6.80
2023-06-04T00:54:47.489Z,7.00
2023-06-04T00:55:47.483Z,7.80
2023-06-04T00:56:47.479Z,6.80
2023-06-04T00:57:47.505Z,6.80
2023-06-04T00:58:47.521Z,8.10
2023-06-04T00:59:47.414Z,8.00
2023-06-04T01:00:47.478Z,7.30
2023-06-04T01:01:47.459Z,6.90
2023-06-04T01:02:47.517Z,6.80
2023-06-04T01:03:47.502Z,7.00
2023-06-04T01:04:47.390Z,7.40
2023-06-04T01:05:47.327Z,7.10
2023-06-04T01:06:47.351Z,6.70
2023-06-04T01:07:47.324Z,6.80
2023-06-04T01:08:47.308Z,6.90
2023-06-04T01:09:47.331Z,6.70
2023-06-04T01:10:47.305Z,6.80
2023-06-04T01:11:47.239Z,7.80
2023-06-04T01:12:47.285Z,7.80
2023-06-04T01:13:48.405Z,7.80
2023-06-04T01:14:47.229Z,6.90
2023-06-04T01:15:47.265Z,7.30
2023-06-04T01:16:47.264Z,6.80
2023-06-04T01:17:47.920Z,7.30
2023-06-04T01:18:47.175Z,7.50
2023-06-04T01:19:47.170Z,7.80
2023-06-04T01:20:47.150Z,7.70
2023-06-04T01:21:47.209Z,8.10
2023-06-04T01:22:47.148Z,7.50
2023-06-04T01:23:47.164Z,10.70
2023-06-04T01:24:47.130Z,10.50
2023-06-04T01:25:47.060Z,8.00
2023-06-04T01:26:47.063Z,7.60
2023-06-04T01:27:47.082Z,7.30
2023-06-04T01:28:47.141Z,7.40
2023-06-04T01:29:47.040Z,7.30
2023-06-04T01:30:47.333Z,7.60
2023-06-04T01:31:47.019Z,8.20
2023-06-04T01:32:47.079Z,8.10
2023-06-04T01:33:46.979Z,8.30
2023-06-04T01:34:46.968Z,8.20
2023-06-04T01:35:46.955Z,8.10
2023-06-04T01:36:46.941Z,8.00
2023-06-04T01:37:46.927Z,8.30
2023-06-04T01:38:46.940Z,8.50
2023-06-04T01:39:46.925Z,9.80
2023-06-04T01:40:46.948Z,8.90
2023-06-04T01:41:47.808Z,10.30
2023-06-04T01:42:46.870Z,9.00
2023-06-04T01:43:46.854Z,9.00
2023-06-04T01:44:46.886Z,10.50
2023-06-04T01:45:46.852Z,9.40
2023-06-04T01:46:47.770Z,8.40
2023-06-04T01:47:46.829Z,9.10
2023-06-04T01:48:46.777Z,9.00
2023-06-04T01:49:46.778Z,8.80
2023-06-04T01:50:46.768Z,9.20
2023-06-04T01:51:46.743Z,9.20
2023-06-04T01:52:46.751Z,9.10
2023-06-04T01:53:46.700Z,9.30
2023-06-04T01:54:46.701Z,10.70
2023-06-04T01:55:46.693Z,11.40
2023-06-04T01:56:46.669Z,9.40
2023-06-04T01:57:46.713Z,8.80
2023-06-04T01:58:46.671Z,9.30
2023-06-04T01:59:47.552Z,8.80
2023-06-04T02:00:46.650Z,9.20
2023-06-04T02:01:46.611Z,10.00
2023-06-04T02:02:46.709Z,9.70
2023-06-04T02:03:46.658Z,9.00
2023-06-04T02:04:46.683Z,9.40
2023-06-04T02:05:46.522Z,9.40
2023-06-04T02:06:46.532Z,9.00
2023-06-04T02:07:46.517Z,9.50
2023-06-04T02:08:46.503Z,9.40
2023-06-04T02:09:46.531Z,12.10
2023-06-04T02:10:46.503Z,11.20
2023-06-04T02:11:46.447Z,9.90
2023-06-04T02:12:46.474Z,9.60
2023-06-04T02:13:46.414Z,9.80
2023-06-04T02:14:46.438Z,10.50
2023-06-04T02:15:46.433Z,10.10
2023-06-04T02:16:47.470Z,9.50
2023-06-04T02:17:46.405Z,10.00
2023-06-04T02:18:46.404Z,10.60
2023-06-04T02:19:46.344Z,10.20
2023-06-04T02:20:46.365Z,10.40
2023-06-04T02:21:46.442Z,10.90
2023-06-04T02:22:46.348Z,10.70
2023-06-04T02:23:46.332Z,10.90
2023-06-04T02:24:46.322Z,10.70
2023-06-04T02:25:46.260Z,9.70
2023-06-04T02:26:46.265Z,10.80
2023-06-04T02:27:46.288Z,11.60
2023-06-04T02:28:46.242Z,10.20
2023-06-04T02:29:46.230Z,9.80
2023-06-04T02:30:46.241Z,10.40
2023-06-04T02:31:46.216Z,12.50
2023-06-04T02:32:50.195Z,11.30
2023-06-04T02:33:47.196Z,11.30
2023-06-04T02:34:46.184Z,10.70
2023-06-04T02:35:46.166Z,11.20
2023-06-04T02:36:46.141Z,11.50
2023-06-04T02:37:46.138Z,12.20
2023-06-04T02:38:46.135Z,13.30
2023-06-04T02:39:46.277Z,13.80
2023-06-04T02:40:46.173Z,12.30
2023-06-04T02:41:46.043Z,12.70
2023-06-04T02:42:46.064Z,12.10
2023-06-04T02:43:46.063Z,13.00
2023-06-04T02:44:46.040Z,12.50
2023-06-04T02:45:46.072Z,12.00
2023-06-04T02:46:46.043Z,12.60
2023-06-04T02:47:46.022Z,12.10
2023-06-04T02:48:46.006Z,11.80
2023-06-04T02:49:45.939Z,11.90
2023-06-04T02:50:45.971Z,11.40
2023-06-04T02:51:46.940Z,11.80
2023-06-04T02:52:45.951Z,10.90
2023-06-04T02:53:45.889Z,11.90
2023-06-04T02:54:45.899Z,13.40
2023-06-04T02:55:45.884Z,12.70
2023-06-04T02:56:45.879Z,13.60
2023-06-04T02:57:45.938Z,13.80
2023-06-04T02:58:45.883Z,13.40
2023-06-04T02:59:45.816Z,13.10
2023-06-04T03:00:45.846Z,12.70
2023-06-04T03:01:45.801Z,12.30
2023-06-04T03:02:45.956Z,13.90
2023-06-04T03:03:45.969Z,13.70
2023-06-04T03:04:45.766Z,13.40
2023-06-04T03:05:45.764Z,13.20
2023-06-04T03:06:45.767Z,13.30
2023-06-04T03:07:45.707Z,12.40
2023-06-04T03:08:45.756Z,12.10
2023-06-04T03:09:45.747Z,12.40
2023-06-04T03:10:45.795Z,12.20
2023-06-04T03:11:45.651Z,12.90
2023-06-04T03:12:45.704Z,12.10
2023-06-04T03:13:45.631Z,12.40
2023-06-04T03:14:45.654Z,17.10
2023-06-04T03:15:45.669Z,14.20
2023-06-04T03:16:45.611Z,10.60
2023-06-04T03:17:45.659Z,11.50
2023-06-04T03:18:45.608Z,12.90
2023-06-04T03:19:45.547Z,11.90
2023-06-04T03:20:45.597Z,16.50
2023-06-04T03:21:45.557Z,12.10
2023-06-04T03:22:45.534Z,11.60
2023-06-04T03:23:45.561Z,12.60
2023-06-04T03:24:45.541Z,12.20
2023-06-04T03:25:45.487Z,11.50
2023-06-04T03:26:45.483Z,11.30
2023-06-04T03:27:45.512Z,12.50
2023-06-04T03:28:45.459Z,12.10
2023-06-04T03:29:45.445Z,9.60
2023-06-04T03:30:45.479Z,8.40
2023-06-04T03:31:45.418Z,9.60
2023-06-04T03:32:46.142Z,9.70
2023-06-04T03:33:45.398Z,9.90
2023-06-04T03:34:45.375Z,11.30
2023-06-04T03:35:45.370Z,9.90
2023-06-04T03:36:46.046Z,8.90
2023-06-04T03:37:45.335Z,9.60
2023-06-04T03:38:45.352Z,9.70
2023-06-04T03:39:45.334Z,9.90
2023-06-04T03:40:45.279Z,10.40
2023-06-04T03:41:45.307Z,10.50
2023-06-04T03:42:45.271Z,9.90
2023-06-04T03:43:45.256Z,11.50
2023-06-04T03:44:45.259Z,12.10
2023-06-04T03:45:45.473Z,13.50
2023-06-04T03:46:45.275Z,12.90
2023-06-04T03:47:45.272Z,21.70
2023-06-04T03:48:45.168Z,12.40
2023-06-04T03:49:45.213Z,14.00
2023-06-04T03:50:45.166Z,13.00
2023-06-04T03:51:45.175Z,13.10
2023-06-04T03:52:45.142Z,12.90
2023-06-04T03:53:45.127Z,12.90
2023-06-04T03:54:45.131Z,12.90
2023-06-04T03:55:45.134Z,13.00
2023-06-04T03:56:45.090Z,14.10
2023-06-04T03:57:45.121Z,13.60
2023-06-04T03:58:46.004Z,12.80
2023-06-04T03:59:45.092Z,11.90
2023-06-04T04:00:45.012Z,11.30
2023-06-04T04:01:45.089Z,11.80
2023-06-04T04:02:45.053Z,12.80
2023-06-04T04:03:45.262Z,11.70
2023-06-04T04:04:45.047Z,14.80
2023-06-04T04:05:44.978Z,12.70
2023-06-04T04:06:44.940Z,14.70
2023-06-04T04:07:44.980Z,12.10
2023-06-04T04:08:45.868Z,12.40
2023-06-04T04:09:44.985Z,11.90
2023-06-04T04:10:44.918Z,12.90
2023-06-04T04:11:44.890Z,11.40
2023-06-04T04:12:44.945Z,11.30
2023-06-04T04:13:44.897Z,11.00
2023-06-04T04:14:44.866Z,11.70
2023-06-04T04:15:44.890Z,11.40
2023-06-04T04:16:44.881Z,12.20
2023-06-04T04:17:44.857Z,14.40
2023-06-04T04:18:44.775Z,11.10
2023-06-04T04:19:44.815Z,10.80
2023-06-04T04:20:44.753Z,11.20
2023-06-04T04:21:44.814Z,11.50
2023-06-04T04:22:44.753Z,11.10
2023-06-04T04:23:44.784Z,11.40
2023-06-04T04:24:44.740Z,10.80
2023-06-04T04:25:44.713Z,12.00
2023-06-04T04:26:45.636Z,13.70
2023-06-04T04:27:44.748Z,10.30
2023-06-04T04:28:44.673Z,10.30
2023-06-04T04:29:44.658Z,10.20
2023-06-04T04:30:44.630Z,10.50
2023-06-04T04:31:44.736Z,11.10
2023-06-04T04:32:44.621Z,13.70
2023-06-04T04:33:44.662Z,11.30
2023-06-04T04:34:44.597Z,11.00
2023-06-04T04:35:44.599Z,11.80
2023-06-04T04:36:44.571Z,10.80
2023-06-04T04:37:44.552Z,11.20
2023-06-04T04:38:44.516Z,10.20
2023-06-04T04:39:44.675Z,10.60
2023-06-04T04:40:44.491Z,10.60
2023-06-04T04:41:44.632Z,10.70
2023-06-04T04:42:44.486Z,10.60
2023-06-04T04:43:44.475Z,10.10
2023-06-04T04:44:44.462Z,10.30
2023-06-04T04:45:44.677Z,10.10
2023-06-04T04:46:44.497Z,9.30
2023-06-04T04:47:44.505Z,9.60
2023-06-04T04:48:44.386Z,9.30
2023-06-04T04:49:44.433Z,9.70
2023-06-04T04:50:44.384Z,10.00
2023-06-04T04:51:44.396Z,10.20
2023-06-04T04:52:44.354Z,9.70
2023-06-04T04:53:44.345Z,9.50
2023-06-04T04:54:44.312Z,9.60
2023-06-04T04:55:44.339Z,9.40
2023-06-04T04:56:45.241Z,10.30
2023-06-04T04:57:44.441Z,9.00
2023-06-04T04:58:44.281Z,8.50
2023-06-04T04:59:45.212Z,8.70
2023-06-04T05:00:45.175Z,8.50
2023-06-04T05:01:44.301Z,8.20
2023-06-04T05:02:44.260Z,8.40
2023-06-04T05:03:44.273Z,9.00
2023-06-04T05:04:44.195Z,8.00
2023-06-04T05:05:44.175Z,8.60
2023-06-04T05:06:44.138Z,9.70
2023-06-04T05:07:44.856Z,8.80
2023-06-04T05:08:44.115Z,8.60
2023-06-04T05:09:44.175Z,8.60
2023-06-04T05:10:44.109Z,10.00
2023-06-04T05:11:44.092Z,9.30
2023-06-04T05:12:44.081Z,10.90
2023-06-04T05:13:44.068Z,8.30
2023-06-04T05:14:44.025Z,9.30
2023-06-04T05:15:44.094Z,9.20
2023-06-04T05:16:44.296Z,9.70
2023-06-04T05:17:44.734Z,9.80
2023-06-04T05:18:43.981Z,8.30
2023-06-04T05:19:44.018Z,10.70
2023-06-04T05:20:43.958Z,8.70
2023-06-04T05:21:44.057Z,9.30
2023-06-04T05:22:43.950Z,7.60
2023-06-04T05:23:43.978Z,7.60
2023-06-04T05:24:44.635Z,8.10
2023-06-04T05:25:43.917Z,10.40
2023-06-04T05:26:43.884Z,7.60
2023-06-04T05:27:44.025Z,9.40
2023-06-04T05:28:44.841Z,9.30
2023-06-04T05:29:43.881Z,7.90
2023-06-04T05:30:43.843Z,9.50
2023-06-04T05:31:44.571Z,8.10
2023-06-04T05:32:43.856Z,8.20
2023-06-04T05:33:43.920Z,8.70
2023-06-04T05:34:44.539Z,7.60
2023-06-04T05:35:43.771Z,7.40
2023-06-04T05:36:43.764Z,8.40
2023-06-04T05:37:43.770Z,7.00
2023-06-04T05:38:43.718Z,8.20
2023-06-04T05:39:43.883Z,8.00
2023-06-04T05:40:43.692Z,7.70
2023-06-04T05:41:43.722Z,6.60
2023-06-04T05:42:43.681Z,6.90
2023-06-04T05:43:43.667Z,6.90
2023-06-04T05:44:43.664Z,7.00
2023-06-04T05:45:43.799Z,7.70
2023-06-04T05:46:43.601Z,7.90
2023-06-04T05:47:43.661Z,8.30
2023-06-04T05:48:43.596Z,6.50
2023-06-04T05:49:43.617Z,7.30
2023-06-04T05:50:43.576Z,7.60
2023-06-04T05:51:43.591Z,9.60
2023-06-04T05:52:43.552Z,8.60
2023-06-04T05:53:43.572Z,6.60
2023-06-04T05:54:44.207Z,8.30
2023-06-04T05:55:43.541Z,6.20
2023-06-04T05:56:43.479Z,6.90
2023-06-04T05:57:43.586Z,7.20
2023-06-04T05:58:43.492Z,6.50
2023-06-04T05:59:43.497Z,6.10
2023-06-04T06:00:43.440Z,7.40
2023-06-04T06:01:43.430Z,6.20
2023-06-04T06:02:43.472Z,5.90
2023-06-04T06:03:43.582Z,6.20
2023-06-04T06:04:43.528Z,6.10
2023-06-04T06:05:43.387Z,6.10
2023-06-04T06:06:43.332Z,5.90
2023-06-04T06:07:43.403Z,6.30
2023-06-04T06:08:43.313Z,6.90
2023-06-04T06:09:43.365Z,6.40
2023-06-04T06:10:43.296Z,7.40
2023-06-04T06:11:43.292Z,6.80
2023-06-04T06:12:43.290Z,8.70
2023-06-04T06:13:43.267Z,6.40
2023-06-04T06:14:43.234Z,6.10
2023-06-04T06:15:43.338Z,5.70
2023-06-04T06:16:43.206Z,6.10
2023-06-04T06:17:43.277Z,6.90
2023-06-04T06:18:43.213Z,6.70
2023-06-04T06:19:43.194Z,5.70
2023-06-04T06:20:43.157Z,7.40
2023-06-04T06:21:43.409Z,6.20
2023-06-04T06:22:43.150Z,5.70
2023-06-04T06:23:43.161Z,8.10
2023-06-04T06:24:43.124Z,6.00
2023-06-04T06:25:43.106Z,6.40
2023-06-04T06:26:43.075Z,7.00
2023-06-04T06:27:43.151Z,5.70
2023-06-04T06:28:43.047Z,10.00
2023-06-04T06:29:43.089Z,7.40
2023-06-04T06:30:43.046Z,8.90
2023-06-04T06:31:43.102Z,5.60
2023-06-04T06:32:43.124Z,7.20
2023-06-04T06:33:43.164Z,7.30
2023-06-04T06:34:42.965Z,5.70
2023-06-04T06:35:43.002Z,5.70
2023-06-04T06:36:42.959Z,7.00
2023-06-04T06:37:42.997Z,9.10
2023-06-04T06:38:42.907Z,5.00
2023-06-04T06:39:42.988Z,5.60
2023-06-04T06:40:42.898Z,4.70
2023-06-04T06:41:42.930Z,4.80
2023-06-04T06:42:42.882Z,4.80
2023-06-04T06:43:42.881Z,5.60
2023-06-04T06:44:42.872Z,4.80
2023-06-04T06:45:42.879Z,7.50
2023-06-04T06:46:42.821Z,8.70
2023-06-04T06:47:42.910Z,4.50
2023-06-04T06:48:42.781Z,5.40
2023-06-04T06:49:42.837Z,4.60
2023-06-04T06:50:42.780Z,6.00
2023-06-04T06:51:42.871Z,5.60
2023-06-04T06:52:42.752Z,6.70
2023-06-04T06:53:42.735Z,6.40
2023-06-04T06:54:42.700Z,7.10
2023-06-04T06:55:42.737Z,7.20
2023-06-04T06:56:42.671Z,4.40
2023-06-04T06:57:42.758Z,4.50
2023-06-04T06:58:42.677Z,6.60
2023-06-04T06:59:42.662Z,4.70
2023-06-04T07:00:42.661Z,8.40
2023-06-04T07:01:42.640Z,6.40
2023-06-04T07:02:42.704Z,7.00
2023-06-04T07:03:42.669Z,5.30
2023-06-04T07:04:42.574Z,7.20
2023-06-04T07:05:42.609Z,5.00
2023-06-04T07:06:42.563Z,5.70
2023-06-04T07:07:42.550Z,3.90
2023-06-04T07:08:42.516Z,6.30
2023-06-04T07:09:42.586Z,4.80
2023-06-04T07:10:42.510Z,4.80
2023-06-04T07:11:42.495Z,4.30
2023-06-04T07:12:43.817Z,3.80
2023-06-04T07:13:42.476Z,3.70
2023-06-04T07:14:42.455Z,6.30
2023-06-04T07:15:42.504Z,4.70
2023-06-04T07:16:42.446Z,3.70
2023-06-04T07:17:42.513Z,4.30
2023-06-04T07:18:42.400Z,8.20
2023-06-04T07:19:42.394Z,3.80
2023-06-04T07:20:42.429Z,5.10
2023-06-04T07:21:42.411Z,5.70
2023-06-04T07:22:42.351Z,3.60
2023-06-04T07:23:42.398Z,7.60
2023-06-04T07:24:42.321Z,3.90
2023-06-04T07:25:42.316Z,4.50
2023-06-04T07:26:42.268Z,3.80
2023-06-04T07:27:42.346Z,5.30
2023-06-04T07:28:42.242Z,6.40
2023-06-04T07:29:42.282Z,4.20
2023-06-04T07:30:42.235Z,4.80
2023-06-04T07:31:42.270Z,3.50
2023-06-04T07:32:42.256Z,3.10
2023-06-04T07:33:42.224Z,8.40
2023-06-04T07:34:42.164Z,4.40
2023-06-04T07:35:42.205Z,3.80
2023-06-04T07:36:42.131Z,4.30
2023-06-04T07:37:42.166Z,9.00
2023-06-04T07:38:42.152Z,2.90
2023-06-04T07:39:42.148Z,3.00
2023-06-04T07:40:42.081Z,2.90
2023-06-04T07:41:42.129Z,3.30
2023-06-04T07:42:42.078Z,6.90
2023-06-04T07:43:42.070Z,4.10
2023-06-04T07:44:42.052Z,4.20
2023-06-04T07:45:42.256Z,3.70
2023-06-04T07:46:42.128Z,5.00
2023-06-04T07:47:42.062Z,4.50
2023-06-04T07:48:41.972Z,4.40
2023-06-04T07:49:54.089Z,6.10
2023-06-04T07:50:43.086Z,2.60
2023-06-04T07:51:41.960Z,3.80
2023-06-04T07:52:41.986Z,2.60
2023-06-04T07:53:41.935Z,4.10
2023-06-04T07:54:41.894Z,4.00
2023-06-04T07:55:41.936Z,3.40
2023-06-04T07:56:41.953Z,3.50
2023-06-04T07:57:41.853Z,3.90
2023-06-04T07:58:41.861Z,2.30
2023-06-04T07:59:41.865Z,6.00
2023-06-04T08:00:41.837Z,3.20
2023-06-04T08:01:41.832Z,4.00
2023-06-04T08:02:41.941Z,2.30
2023-06-04T08:03:42.014Z,6.30
2023-06-04T08:04:41.841Z,4.30
2023-06-04T08:05:41.758Z,2.50
2023-06-04T08:06:41.761Z,3.40
2023-06-04T08:07:41.787Z,4.30
2023-06-04T08:08:41.770Z,3.10
2023-06-04T08:09:41.785Z,3.90
2023-06-04T08:10:41.727Z,2.90
2023-06-04T08:11:41.664Z,4.20
2023-06-04T08:12:41.681Z,2.60
2023-06-04T08:13:41.665Z,2.40
2023-06-04T08:14:41.726Z,4.20
2023-06-04T08:15:41.613Z,3.30
2023-06-04T08:16:41.909Z,6.10
2023-06-04T08:17:41.659Z,7.10
2023-06-04T08:18:41.597Z,4.60
2023-06-04T08:19:41.583Z,4.60
2023-06-04T08:20:41.609Z,2.10
2023-06-04T08:21:41.559Z,3.50
2023-06-04T08:22:41.569Z,2.80
2023-06-04T08:23:41.565Z,9.70
2023-06-04T08:24:41.543Z,3.30
2023-06-04T08:25:41.508Z,2.90
2023-06-04T08:26:41.607Z,2.50
2023-06-04T08:27:41.478Z,6.10
2023-06-04T08:28:41.499Z,3.00
2023-06-04T08:29:41.616Z,4.00
2023-06-04T08:30:41.433Z,5.00
2023-06-04T08:31:41.462Z,2.10
2023-06-04T08:32:41.613Z,4.60
2023-06-04T08:33:41.507Z,3.50
2023-06-04T08:34:41.424Z,6.00
2023-06-04T08:35:41.349Z,2.70
2023-06-04T08:36:41.385Z,2.60
2023-06-04T08:37:41.322Z,3.90
2023-06-04T08:38:41.541Z,2.60
2023-06-04T08:39:41.325Z,3.70
2023-06-04T08:40:41.308Z,2.10
2023-06-04T08:41:41.294Z,5.50
2023-06-04T08:42:41.300Z,2.70
2023-06-04T08:43:41.244Z,3.90
2023-06-04T08:44:41.289Z,6.60
2023-06-04T08:45:41.376Z,2.20
2023-06-04T08:46:41.276Z,11.70
2023-06-04T08:47:41.225Z,2.70
2023-06-04T08:48:41.234Z,3.50
2023-06-04T08:49:41.178Z,4.30
2023-06-04T08:50:41.204Z,4.60
2023-06-04T08:51:41.175Z,4.10
2023-06-04T08:52:41.154Z,1.90
2023-06-04T08:53:41.173Z,3.30
2023-06-04T08:54:41.155Z,4.40
2023-06-04T08:55:41.087Z,2.50
2023-06-04T08:56:41.163Z,5.30
2023-06-04T08:57:41.086Z,2.80
2023-06-04T08:58:42.039Z,3.00
2023-06-04T08:59:41.061Z,2.00
2023-06-04T09:00:41.050Z,3.00
2023-06-04T09:01:41.065Z,4.90
2023-06-04T09:02:41.257Z,3.60
2023-06-04T09:03:41.009Z,2.00
2023-06-04T09:04:41.018Z,2.80
2023-06-04T09:05:40.954Z,4.10
2023-06-04T09:06:41.927Z,1.70
2023-06-04T09:07:40.961Z,1.90
2023-06-04T09:08:40.990Z,6.60
2023-06-04T09:09:40.958Z,1.70
2023-06-04T09:10:40.940Z,3.10
2023-06-04T09:11:40.883Z,5.40
2023-06-04T09:12:40.924Z,4.20
2023-06-04T09:13:40.840Z,3.90
2023-06-04T09:14:40.984Z,3.50
2023-06-04T09:15:40.886Z,1.80
2023-06-04T09:16:40.860Z,3.30
2023-06-04T09:17:40.833Z,2.20
2023-06-04T09:18:40.812Z,3.70
2023-06-04T09:19:40.797Z,1.80
2023-06-04T09:20:40.806Z,4.80
2023-06-04T09:21:40.766Z,3.30
2023-06-04T09:22:40.781Z,3.30
2023-06-04T09:23:40.754Z,3.70
2023-06-04T09:24:40.806Z,2.20
2023-06-04T09:25:40.693Z,4.30
2023-06-04T09:26:40.738Z,6.40
2023-06-04T09:27:40.688Z,3.70
2023-06-04T09:28:40.674Z,1.60
2023-06-04T09:29:40.665Z,2.30
2023-06-04T09:30:40.845Z,1.70
2023-06-04T09:31:40.648Z,5.10
2023-06-04T09:32:40.666Z,4.00
2023-06-04T09:33:40.606Z,1.90
2023-06-04T09:34:40.627Z,3.70
2023-06-04T09:35:40.554Z,3.00
2023-06-04T09:36:40.602Z,3.60
2023-06-04T09:37:40.531Z,4.20
2023-06-04T09:38:40.574Z,1.90
2023-06-04T09:39:40.530Z,4.80
2023-06-04T09:40:40.541Z,4.20
2023-06-04T09:41:40.536Z,3.90
2023-06-04T09:42:40.522Z,2.10
2023-06-04T09:43:40.461Z,2.20
2023-06-04T09:44:40.593Z,2.20
2023-06-04T09:45:40.445Z,5.10
2023-06-04T09:46:40.475Z,2.90
2023-06-04T09:47:40.491Z,3.60
2023-06-04T09:48:40.435Z,5.00
2023-06-04T09:49:40.376Z,4.70
2023-06-04T09:50:40.778Z,1.70
2023-06-04T09:51:40.374Z,1.80
2023-06-04T09:52:40.382Z,1.70
2023-06-04T09:53:40.345Z,2.80
2023-06-04T09:54:40.355Z,3.60
2023-06-04T09:55:40.300Z,2.30
2023-06-04T09:56:40.366Z,2.50
2023-06-04T09:57:44.160Z,2.10
2023-06-04T09:58:41.728Z,2.00
2023-06-04T09:59:40.294Z,4.20
2023-06-04T10:00:41.215Z,4.90
2023-06-04T10:01:40.289Z,4.10
2023-06-04T10:02:40.388Z,3.30
2023-06-04T10:03:40.346Z,3.10
2023-06-04T10:04:40.223Z,3.80
2023-06-04T10:05:40.160Z,5.70
2023-06-04T10:06:40.169Z,3.90
2023-06-04T10:07:40.181Z,2.20
2023-06-04T10:08:40.174Z,1.80
2023-06-04T10:09:40.154Z,1.60
2023-06-04T10:10:40.163Z,2.30
2023-06-04T10:11:40.080Z,3.00
2023-06-04T10:12:40.114Z,4.10
2023-06-04T10:13:40.065Z,2.40
2023-06-04T10:14:40.090Z,2.50
2023-06-04T10:15:40.068Z,3.60
2023-06-04T10:16:40.078Z,2.00
2023-06-04T10:17:40.093Z,1.90
2023-06-04T10:18:40.046Z,2.20
2023-06-04T10:19:39.982Z,7.60
2023-06-04T10:20:40.028Z,2.60
2023-06-04T10:21:39.982Z,2.40
2023-06-04T10:22:39.988Z,2.20
2023-06-04T10:23:39.960Z,1.60
2023-06-04T10:24:39.984Z,2.90
2023-06-04T10:25:39.896Z,2.70
2023-06-04T10:26:40.021Z,3.30
2023-06-04T10:27:39.898Z,3.80
2023-06-04T10:28:39.891Z,1.50
2023-06-04T10:29:39.877Z,1.70
2023-06-04T10:30:39.900Z,5.80
2023-06-04T10:31:40.590Z,3.90
2023-06-04T10:32:39.938Z,6.50
2023-06-04T10:33:39.805Z,2.80
2023-06-04T10:34:39.817Z,1.70
2023-06-04T10:35:39.804Z,1.70
2023-06-04T10:36:39.811Z,1.60
2023-06-04T10:37:39.748Z,2.20
2023-06-04T10:38:39.786Z,6.30
2023-06-04T10:39:39.750Z,2.70
2023-06-04T10:40:39.741Z,1.50
2023-06-04T10:41:39.728Z,3.20
2023-06-04T10:42:39.827Z,3.80
2023-06-04T10:43:39.666Z,3.10
2023-06-04T10:44:39.744Z,3.30
2023-06-04T10:45:39.655Z,3.00
2023-06-04T10:46:39.775Z,2.00
2023-06-04T10:47:39.695Z,3.00
2023-06-04T10:48:39.630Z,2.60
2023-06-04T10:49:39.611Z,5.80
2023-06-04T10:50:39.670Z,1.70
2023-06-04T10:51:39.579Z,3.70
2023-06-04T10:52:39.612Z,3.80
2023-06-04T10:53:39.562Z,1.70
2023-06-04T10:54:39.570Z,6.10
2023-06-04T10:55:39.504Z,1.60
2023-06-04T10:56:39.659Z,2.10
2023-06-04T10:57:39.481Z,2.20
2023-06-04T10:58:39.497Z,2.00
2023-06-04T10:59:39.498Z,3.80
2023-06-04T11:00:39.491Z,5.40
2023-06-04T11:01:39.473Z,1.80
2023-06-04T11:02:39.568Z,5.90
2023-06-04T11:03:39.481Z,3.40
2023-06-04T11:04:39.424Z,1.90
2023-06-04T11:05:39.389Z,2.40
2023-06-04T11:06:39.373Z,4.80
2023-06-04T11:07:39.364Z,2.30
2023-06-04T11:08:39.575Z,4.30
2023-06-04T11:09:39.363Z,2.00
2023-06-04T11:10:39.375Z,2.20
2023-06-04T11:11:39.285Z,5.60
2023-06-04T11:12:39.368Z,2.90
2023-06-04T11:13:39.266Z,7.70
2023-06-04T11:14:39.556Z,2.60
2023-06-04T11:15:41.047Z,2.10
2023-06-04T11:16:39.436Z,2.00
2023-06-04T11:17:39.285Z,2.80
2023-06-04T11:18:39.234Z,4.30
2023-06-04T11:19:39.170Z,2.90
2023-06-04T11:20:39.335Z,3.90
2023-06-04T11:21:39.206Z,1.90
2023-06-04T11:22:39.185Z,4.40
2023-06-04T11:23:39.186Z,3.00
2023-06-04T11:24:39.173Z,3.30
2023-06-04T11:25:39.096Z,2.00
2023-06-04T11:26:41.900Z,4.60
2023-06-04T11:27:40.089Z,3.20
2023-06-04T11:28:39.076Z,2.80
2023-06-04T11:29:39.066Z,3.30
2023-06-04T11:30:39.072Z,4.30
2023-06-04T11:31:39.031Z,1.70
2023-06-04T11:32:39.125Z,1.90
2023-06-04T11:33:38.984Z,1.90
2023-06-04T11:34:38.997Z,3.00
2023-06-04T11:35:38.983Z,8.00
2023-06-04T11:36:38.975Z,4.20
2023-06-04T11:37:38.954Z,4.50
2023-06-04T11:38:39.008Z,1.90
2023-06-04T11:39:38.908Z,3.80
2023-06-04T11:40:38.953Z,1.70
2023-06-04T11:41:38.903Z,3.80
2023-06-04T11:42:38.993Z,2.80
2023-06-04T11:43:38.878Z,4.50
2023-06-04T11:44:39.023Z,2.40
2023-06-04T11:45:38.829Z,3.00
2023-06-04T11:46:38.868Z,1.90
2023-06-04T11:47:38.902Z,5.80
2023-06-04T11:48:38.855Z,1.50
2023-06-04T11:49:38.805Z,3.70
2023-06-04T11:50:38.843Z,3.60
2023-06-04T11:51:38.756Z,3.30
2023-06-04T11:52:38.788Z,4.20
2023-06-04T11:53:38.728Z,1.70
2023-06-04T11:54:38.737Z,3.40
2023-06-04T11:55:40.013Z,4.50
2023-06-04T11:56:38.772Z,2.00
2023-06-04T11:57:38.673Z,1.80
2023-06-04T11:58:38.683Z,3.10
2023-06-04T11:59:38.673Z,3.00
2023-06-04T12:00:38.658Z,2.50
2023-06-04T12:01:40.317Z,4.90
2023-06-04T12:02:38.749Z,4.20
2023-06-04T12:03:38.680Z,5.10
2023-06-04T12:04:38.634Z,3.90
2023-06-04T12:05:38.613Z,3.30
2023-06-04T12:06:38.608Z,1.90
2023-06-04T12:07:38.567Z,4.80
2023-06-04T12:08:38.675Z,2.80
2023-06-04T12:09:38.548Z,2.20
2023-06-04T12:10:38.579Z,3.60
2023-06-04T12:11:38.495Z,1.60
2023-06-04T12:12:38.479Z,2.10
2023-06-04T12:13:38.532Z,2.60
2023-06-04T12:14:38.574Z,4.30
2023-06-04T12:15:38.488Z,2.60
2023-06-04T12:16:38.555Z,2.40
2023-06-04T12:17:38.534Z,5.70
2023-06-04T12:18:38.408Z,2.20
2023-06-04T12:19:38.445Z,5.70
2023-06-04T12:20:38.404Z,2.60
2023-06-04T12:21:38.415Z,1.50
2023-06-04T12:22:38.377Z,1.40
2023-06-04T12:27:41.214Z,1.50
2023-06-04T12:27:45.904Z,4.10
2023-06-04T12:28:45.887Z,4.70
2023-06-04T12:29:45.850Z,3.60
2023-06-04T12:30:45.950Z,2.70
2023-06-04T12:31:45.897Z,4.10
2023-06-04T12:32:45.902Z,1.30
2023-06-04T12:33:45.796Z,3.20
2023-06-04T12:34:45.843Z,3.00
2023-06-04T12:35:45.776Z,2.10
2023-06-04T12:36:45.808Z,3.90
2023-06-04T12:37:45.775Z,1.90
2023-06-04T12:38:47.810Z,5.00
2023-06-04T12:39:45.752Z,2.50
2023-06-04T12:40:45.745Z,2.10
2023-06-04T12:41:45.700Z,3.90
2023-06-04T12:42:45.747Z,1.50
2023-06-04T12:43:45.676Z,1.30
2023-06-04T12:44:45.738Z,3.20
2023-06-04T12:45:45.685Z,3.10
2023-06-04T12:46:45.706Z,2.30
2023-06-04T12:47:45.657Z,3.20
2023-06-04T12:48:45.659Z,3.10
2023-06-04T12:49:45.629Z,1.50
2023-06-04T12:50:45.639Z,1.50
2023-06-04T12:51:45.602Z,2.20
2023-06-04T12:52:45.585Z,1.30
2023-06-04T12:53:45.549Z,1.70
2023-06-04T12:54:45.587Z,1.90
2023-06-04T12:55:45.523Z,1.60
2023-06-04T12:56:45.614Z,3.20
2023-06-04T12:57:45.588Z,1.20
2023-06-04T12:58:45.514Z,3.40
2023-06-04T12:59:45.504Z,4.50
2023-06-04T13:00:45.498Z,1.90
2023-06-04T13:01:45.501Z,3.40
2023-06-04T13:02:45.607Z,2.50
2023-06-04T13:03:45.498Z,4.70
2023-06-04T13:21:11.813Z,2.40
2023-06-04T13:21:16.967Z,2.40
2023-06-04T14:23:30.172Z,1.20
2023-06-04T17:02:01.273Z,1.80
2023-06-04T17:02:07.117Z,1.50
2023-06-04T17:03:05.984Z,1.90
2023-06-04T17:04:06.584Z,2.50
2023-06-04T17:05:20.233Z,2.30
2023-06-04T17:08:56.091Z,3.40
2023-06-04T17:09:00.764Z,5.50
2023-06-04T17:10:00.788Z,4.60
2023-06-04T17:11:00.739Z,3.60
2023-06-04T17:12:00.784Z,5.00